Time;durP1;ratioP1;P1;durP2;ratioP2;P2;SDS_P1;SDS_P2;PMS_P1;PMS_P2;Temp;Humidity;BMP_temperature;BMP_pressure;BME280_temperature;BME280_humidity;BME280_pressure;Samples;Min_cycle;Max_cycle;Signal;HPM_P1;HPM_P2
2021/09/17 00:03:40;;;;;;;15.45;9.52;;;;;;;;;;8189129;28;20474;-76
2021/09/17 00:07:45;;;;;;;15.68;9.75;;;;;;;;;;8169907;28;20072;-76
2021/09/17 00:11:51;;;;;;;17.88;10.43;;;;;;;;;;8178272;28;20465;-77
2021/09/17 00:15:56;;;;;;;16.40;9.60;;;;;;;;;;8162649;28;20050;-76
2021/09/17 00:20:01;;;;;;;15.73;10.23;;;;;;;;;;8180304;28;20457;-75
2021/09/17 00:24:06;;;;;;;18.15;10.05;;;;;;;;;;8164474;28;20054;-77
2021/09/17 00:28:12;;;;;;;15.52;9.65;;;;;;;;;;8162573;28;20072;-77
2021/09/17 00:32:17;;;;;;;17.10;10.20;;;;;;;;;;8163372;28;20350;-78
2021/09/17 00:36:21;;;;;;;19.02;10.40;;;;;;;;;;8163169;28;20370;-75
2021/09/17 00:40:26;;;;;;;15.27;9.93;;;;;;;;;;8179439;28;20046;-76
2021/09/17 00:44:31;;;;;;;17.65;10.43;;;;;;;;;;8162865;28;20077;-77
2021/09/17 00:48:37;;;;;;;14.95;9.85;;;;;;;;;;8163392;28;20046;-77
2021/09/17 00:52:43;;;;;;;14.65;9.02;;;;;;;;;;8163359;28;20353;-77
2021/09/17 00:56:48;;;;;;;14.05;9.07;;;;;;;;;;8161069;28;20381;-77
2021/09/17 01:00:53;;;;;;;12.75;8.63;;;;;;;;;;8163189;28;20350;-78
2021/09/17 01:04:59;;;;;;;14.90;8.52;;;;;;;;;;8163797;28;20488;-77
2021/09/17 01:09:06;;;;;;;13.23;8.90;;;;;;;;;;8163238;28;20069;-78
2021/09/17 01:13:11;;;;;;;12.37;8.40;;;;;;;;;;8161146;28;20450;-76
2021/09/17 01:17:18;;;;;;;15.77;9.65;;;;;;;;;;8160551;28;20500;-78
2021/09/17 01:21:25;;;;;;;12.57;8.23;;;;;;;;;;8161097;28;20050;-77
2021/09/17 01:25:30;;;;;;;13.80;9.13;;;;;;;;;;8162895;28;20069;-78
2021/09/17 01:29:35;;;;;;;13.85;8.20;;;;;;;;;;8161327;28;20382;-78
2021/09/17 01:33:40;;;;;;;14.45;9.00;;;;;;;;;;8162706;28;20386;-76
2021/09/17 01:37:48;;;;;;;16.90;9.35;;;;;;;;;;8164695;28;20377;-75
2021/09/17 01:41:54;;;;;;;12.88;9.07;;;;;;;;;;8163805;28;20465;-75
2021/09/17 01:45:59;;;;;;;18.45;8.43;;;;;;;;;;8160398;28;20046;-76
2021/09/17 01:50:05;;;;;;;17.65;9.23;;;;;;;;;;8159866;28;20489;-76
2021/09/17 01:54:10;;;;;;;14.93;9.15;;;;;;;;;;8160033;28;20046;-76
2021/09/17 01:58:15;;;;;;;15.88;9.10;;;;;;;;;;8159493;28;20457;-76
2021/09/17 02:02:20;;;;;;;16.20;9.43;;;;;;;;;;8161262;28;20323;-75
2021/09/17 02:06:26;;;;;;;17.90;11.18;;;;;;;;;;8162667;28;20034;-75
2021/09/17 02:10:32;;;;;;;14.02;9.73;;;;;;;;;;8159948;28;20485;-77
2021/09/17 02:14:38;;;;;;;18.52;10.40;;;;;;;;;;8165733;28;20454;-76
2021/09/17 02:18:43;;;;;;;17.25;9.68;;;;;;;;;;8160980;28;20513;-75
2021/09/17 02:22:49;;;;;;;14.38;9.27;;;;;;;;;;8177415;28;20453;-75
2021/09/17 02:26:54;;;;;;;18.25;9.15;;;;;;;;;;8161658;28;20494;-75
2021/09/17 02:30:59;;;;;;;13.13;8.68;;;;;;;;;;8161516;28;20484;-77
2021/09/17 02:35:05;;;;;;;12.63;8.43;;;;;;;;;;8176748;28;20461;-77
2021/09/17 02:39:13;;;;;;;9.73;6.72;;;;;;;;;;8162350;28;20050;-79
2021/09/17 02:43:20;;;;;;;13.95;7.13;;;;;;;;;;8160152;28;20390;-77
2021/09/17 02:47:25;;;;;;;9.02;6.15;;;;;;;;;;8160620;28;20481;-78
2021/09/17 02:51:30;;;;;;;8.23;5.55;;;;;;;;;;8159486;28;20039;-79
2021/09/17 02:55:35;;;;;;;11.45;5.07;;;;;;;;;;8162036;28;20064;-78
2021/09/17 02:59:43;;;;;;;8.48;5.22;;;;;;;;;;8167514;28;20378;-78
2021/09/17 03:03:48;;;;;;;7.20;4.45;;;;;;;;;;8166175;28;20046;-78
2021/09/17 03:07:53;;;;;;;10.57;5.15;;;;;;;;;;8167138;28;20073;-79
2021/09/17 03:11:59;;;;;;;7.45;5.35;;;;;;;;;;8168808;28;20362;-77
2021/09/17 03:16:07;;;;;;;9.73;6.05;;;;;;;;;;8166718;28;20054;-78
2021/09/17 03:20:13;;;;;;;13.98;5.93;;;;;;;;;;8165056;28;20046;-77
2021/09/17 03:24:18;;;;;;;9.07;5.65;;;;;;;;;;8168081;28;20454;-78
2021/09/17 03:28:23;;;;;;;9.73;6.50;;;;;;;;;;8169681;28;20122;-78
2021/09/17 03:32:28;;;;;;;9.00;6.20;;;;;;;;;;8177042;28;20364;-77
2021/09/17 03:36:32;;;;;;;11.40;7.07;;;;;;;;;;8174073;28;20478;-77
2021/09/17 03:40:40;;;;;;;10.93;6.82;;;;;;;;;;8186222;28;20382;-77
2021/09/17 03:44:45;;;;;;;15.00;7.57;;;;;;;;;;8192882;28;20453;-78
2021/09/17 03:48:50;;;;;;;12.27;5.85;;;;;;;;;;8198902;28;20060;-77
2021/09/17 03:52:56;;;;;;;8.80;5.45;;;;;;;;;;8206975;28;20412;-77
2021/09/17 03:57:01;;;;;;;14.32;5.22;;;;;;;;;;8202038;28;20469;-78
2021/09/17 04:01:06;;;;;;;7.00;4.30;;;;;;;;;;8209048;28;20449;-77
2021/09/17 04:05:12;;;;;;;10.32;4.90;;;;;;;;;;8209097;28;20042;-77
2021/09/17 04:09:17;;;;;;;7.03;4.18;;;;;;;;;;8193829;28;20048;-76
2021/09/17 04:13:23;;;;;;;5.78;3.95;;;;;;;;;;8189495;28;20045;-76
2021/09/17 04:17:28;;;;;;;4.35;3.15;;;;;;;;;;8193351;28;20355;-78
2021/09/17 04:21:33;;;;;;;8.82;3.13;;;;;;;;;;8191247;28;20052;-77
2021/09/17 04:25:38;;;;;;;5.82;3.25;;;;;;;;;;8190067;28;20064;-76
2021/09/17 04:29:44;;;;;;;6.07;2.95;;;;;;;;;;8140511;28;20330;-76
2021/09/17 04:33:49;;;;;;;4.30;2.45;;;;;;;;;;8232676;28;20054;-77
2021/09/17 04:37:58;;;;;;;4.57;2.42;;;;;;;;;;8238323;28;20045;-77
2021/09/17 04:42:04;;;;;;;2.70;2.10;;;;;;;;;;8232152;28;20384;-77
2021/09/17 04:46:09;;;;;;;3.88;1.63;;;;;;;;;;8229720;28;20049;-78
2021/09/17 04:50:14;;;;;;;3.80;1.50;;;;;;;;;;8229449;28;20354;-77
2021/09/17 04:54:21;;;;;;;4.65;1.77;;;;;;;;;;8231562;28;20048;-77
2021/09/17 04:58:26;;;;;;;5.88;3.08;;;;;;;;;;8227248;28;20399;-78
2021/09/17 05:02:31;;;;;;;2.58;1.75;;;;;;;;;;8229416;28;20385;-77
2021/09/17 05:06:38;;;;;;;1.90;1.60;;;;;;;;;;8226548;28;20068;-76
2021/09/17 05:10:43;;;;;;;3.83;1.60;;;;;;;;;;8232429;28;20041;-77
2021/09/17 05:14:48;;;;;;;2.95;1.30;;;;;;;;;;8228794;28;20060;-77
2021/09/17 05:18:53;;;;;;;2.35;1.20;;;;;;;;;;8219648;28;20376;-77
2021/09/17 05:22:59;;;;;;;2.53;1.27;;;;;;;;;;8236995;28;20364;-77
2021/09/17 05:27:11;;;;;;;2.17;1.58;;;;;;;;;;8229185;28;20042;-78
2021/09/17 05:31:16;;;;;;;6.50;1.90;;;;;;;;;;8225372;28;20404;-78
2021/09/17 05:35:21;;;;;;;2.50;1.73;;;;;;;;;;8214223;28;20385;-78
2021/09/17 05:39:27;;;;;;;4.82;1.60;;;;;;;;;;8224945;28;20392;-77
2021/09/17 05:43:32;;;;;;;2.03;1.20;;;;;;;;;;8215886;28;20050;-78
2021/09/17 05:47:38;;;;;;;3.38;1.50;;;;;;;;;;8234452;28;20349;-77
2021/09/17 05:51:44;;;;;;;5.43;1.30;;;;;;;;;;8210784;28;20349;-77
2021/09/17 05:55:50;;;;;;;9.13;3.45;;;;;;;;;;8203613;28;20388;-78
2021/09/17 05:59:55;;;;;;;3.28;2.03;;;;;;;;;;8210077;28;20495;-77
2021/09/17 06:04:00;;;;;;;1.52;0.93;;;;;;;;;;8239139;28;20049;-78
2021/09/17 06:08:06;;;;;;;1.85;1.10;;;;;;;;;;8237941;28;20064;-78
2021/09/17 06:12:11;;;;;;;6.90;1.60;;;;;;;;;;8230607;28;20438;-78
2021/09/17 06:16:18;;;;;;;1.20;0.90;;;;;;;;;;8233973;28;20369;-77
2021/09/17 06:20:24;;;;;;;1.25;1.05;;;;;;;;;;8236189;28;20353;-78
2021/09/17 06:24:29;;;;;;;1.73;1.05;;;;;;;;;;8223861;28;20408;-77
2021/09/17 06:28:34;;;;;;;2.30;1.27;;;;;;;;;;8234794;28;20484;-79
2021/09/17 06:32:40;;;;;;;2.28;1.38;;;;;;;;;;8243605;28;20053;-77
2021/09/17 06:36:45;;;;;;;2.00;1.23;;;;;;;;;;8242111;28;20068;-77
2021/09/17 06:40:50;;;;;;;2.00;1.10;;;;;;;;;;8250943;28;20057;-77
2021/09/17 06:44:55;;;;;;;4.85;3.00;;;;;;;;;;8245984;28;20056;-78
2021/09/17 06:49:00;;;;;;;16.38;10.20;;;;;;;;;;8217757;28;20040;-77
2021/09/17 06:53:05;;;;;;;6.38;5.03;;;;;;;;;;8232413;28;20037;-77
2021/09/17 06:57:11;;;;;;;3.22;1.80;;;;;;;;;;8226600;28;20495;-78
2021/09/17 07:01:16;;;;;;;2.10;1.55;;;;;;;;;;8240871;28;20373;-77
2021/09/17 07:05:24;;;;;;;4.47;2.00;;;;;;;;;;8236839;28;20519;-77
2021/09/17 07:09:29;;;;;;;4.93;1.83;;;;;;;;;;8236126;28;20062;-78
2021/09/17 07:13:34;;;;;;;8.40;1.90;;;;;;;;;;8243577;28;20056;-78
2021/09/17 07:17:41;;;;;;;5.13;2.28;;;;;;;;;;8242692;28;20044;-77
2021/09/17 07:21:47;;;;;;;4.10;2.00;;;;;;;;;;8246879;28;20060;-77
2021/09/17 07:25:52;;;;;;;2.42;1.38;;;;;;;;;;8232760;28;20360;-77
2021/09/17 07:29:58;;;;;;;2.63;1.40;;;;;;;;;;8228230;28;20083;-78
2021/09/17 07:34:03;;;;;;;2.88;1.52;;;;;;;;;;8226639;28;20050;-78
2021/09/17 07:38:08;;;;;;;2.28;1.55;;;;;;;;;;8229222;28;20400;-77
2021/09/17 07:42:13;;;;;;;3.10;1.58;;;;;;;;;;8233567;28;20480;-77
2021/09/17 07:46:18;;;;;;;3.00;1.90;;;;;;;;;;8235578;28;20384;-77
2021/09/17 07:50:25;;;;;;;4.88;2.03;;;;;;;;;;8232858;28;20453;-77
2021/09/17 07:54:32;;;;;;;2.72;1.80;;;;;;;;;;8242513;28;20044;-77
2021/09/17 07:58:35;;;;;;;3.28;2.05;;;;;;;;;;8243701;28;20046;-77
2021/09/17 08:02:42;;;;;;;2.58;1.65;;;;;;;;;;8261981;28;20381;-77
2021/09/17 08:06:49;;;;;;;3.13;1.80;;;;;;;;;;8255531;28;20441;-78
2021/09/17 08:10:55;;;;;;;2.58;2.17;;;;;;;;;;8242996;28;20330;-77
2021/09/17 08:15:00;;;;;;;6.68;3.38;;;;;;;;;;8243565;28;20045;-77
2021/09/17 08:19:06;;;;;;;7.70;5.30;;;;;;;;;;8244462;28;20511;-77
2021/09/17 08:23:12;;;;;;;5.38;4.00;;;;;;;;;;8243912;28;20477;-77
2021/09/17 08:27:17;;;;;;;5.10;3.88;;;;;;;;;;8236644;28;20480;-78
2021/09/17 08:31:22;;;;;;;5.20;3.05;;;;;;;;;;8240047;28;20380;-77
2021/09/17 08:35:47;;;;;;;6.65;3.92;;;;;;;;;;8238845;28;20381;-77
2021/09/17 08:40:14;;;;;;;3.03;1.80;;;;;;;;;;8246307;28;20366;-77
2021/09/17 08:44:19;;;;;;;4.88;1.60;;;;;;;;;;8249984;28;20054;-76
2021/09/17 08:48:30;;;;;;;2.22;1.17;;;;;;;;;;8250651;28;20057;-77
2021/09/17 08:52:37;;;;;;;14.98;4.63;;;;;;;;;;8244383;28;20052;-78
2021/09/17 08:56:43;;;;;;;2.33;1.20;;;;;;;;;;8244218;28;20373;-77
2021/09/17 09:00:48;;;;;;;16.05;8.18;;;;;;;;;;8237773;28;20042;-76
2021/09/17 09:05:08;;;;;;;25.58;11.23;;;;;;;;;;8242643;28;20053;-78
2021/09/17 09:09:19;;;;;;;79.72;31.05;;;;;;;;;;8236619;28;20046;-78
2021/09/17 09:13:24;;;;;;;40.80;16.92;;;;;;;;;;8233063;28;20509;-77
2021/09/17 09:17:36;;;;;;;24.13;9.85;;;;;;;;;;8238899;28;20368;-78
2021/09/17 09:21:41;;;;;;;29.08;13.25;;;;;;;;;;8232312;28;20050;-77
2021/09/17 09:26:07;;;;;;;15.65;6.93;;;;;;;;;;8227054;28;20361;-77
2021/09/17 09:30:13;;;;;;;2.40;1.70;;;;;;;;;;8231636;28;20361;-78
2021/09/17 09:34:18;;;;;;;2.63;1.70;;;;;;;;;;8251891;28;20075;-78
2021/09/17 09:38:37;;;;;;;2.47;1.55;;;;;;;;;;8226533;28;20481;-78
2021/09/17 09:42:46;;;;;;;5.43;1.73;;;;;;;;;;8221828;28;20052;-77
2021/09/17 09:46:52;;;;;;;3.58;1.88;;;;;;;;;;8216443;28;20453;-77
2021/09/17 09:51:11;;;;;;;2.25;1.63;;;;;;;;;;8260624;28;20244;-78
2021/09/17 09:55:16;;;;;;;2.83;1.65;;;;;;;;;;8271933;28;20369;-78
2021/09/17 09:59:29;;;;;;;2.55;1.48;;;;;;;;;;8258131;28;20400;-77
2021/09/17 10:03:36;;;;;;;4.97;1.58;;;;;;;;;;8254917;28;20045;-77
2021/09/17 10:07:43;;;;;;;3.60;2.35;;;;;;;;;;8208666;28;20352;-78
2021/09/17 10:11:48;;;;;;;4.88;2.30;;;;;;;;;;8203015;28;20380;-78
2021/09/17 10:15:54;;;;;;;7.10;2.40;;;;;;;;;;8202369;28;20461;-77
2021/09/17 10:20:01;;;;;;;3.42;2.00;;;;;;;;;;8203627;28;20369;-79
2021/09/17 10:24:28;;;;;;;5.00;2.72;;;;;;;;;;8186817;28;20049;-78
2021/09/17 10:28:55;;;;;;;3.33;2.33;;;;;;;;;;8154095;28;20053;-78
2021/09/17 10:33:02;;;;;;;2.80;2.42;;;;;;;;;;8198577;28;20495;-80
2021/09/17 10:37:07;;;;;;;4.80;2.60;;;;;;;;;;8204059;28;20454;-77
2021/09/17 10:41:12;;;;;;;3.45;2.60;;;;;;;;;;8188031;28;20489;-78
2021/09/17 10:45:18;;;;;;;3.67;2.92;;;;;;;;;;8185792;28;20354;-77
2021/09/17 10:49:24;;;;;;;4.65;3.25;;;;;;;;;;8204636;28;20495;-78
2021/09/17 10:53:41;;;;;;;6.10;3.45;;;;;;;;;;8203449;28;20503;-78
2021/09/17 10:58:28;;;;;;;8.25;3.15;;;;;;;;;;8203900;28;20072;-79
2021/09/17 11:02:42;;;;;;;4.35;3.13;;;;;;;;;;8205879;28;20038;-77
2021/09/17 11:06:49;;;;;;;5.50;3.13;;;;;;;;;;8207031;28;20053;-77
2021/09/17 11:10:54;;;;;;;3.70;2.63;;;;;;;;;;8206554;28;20052;-77
2021/09/17 11:15:15;;;;;;;5.68;2.90;;;;;;;;;;8208509;28;20453;-78
2021/09/17 11:19:21;;;;;;;5.32;3.08;;;;;;;;;;8212088;28;20361;-78
2021/09/17 11:23:37;;;;;;;5.30;3.60;;;;;;;;;;8209108;28;20477;-78
2021/09/17 11:27:43;;;;;;;6.78;2.90;;;;;;;;;;8195686;28;20358;-77
2021/09/17 11:31:54;;;;;;;7.50;3.17;;;;;;;;;;8217558;28;20454;-78
2021/09/17 11:35:59;;;;;;;4.90;3.35;;;;;;;;;;8218443;28;20064;-77
2021/09/17 11:40:09;;;;;;;4.70;3.17;;;;;;;;;;8216227;28;20053;-78
2021/09/17 11:44:39;;;;;;;3.55;2.60;;;;;;;;;;8211449;28;20354;-77
2021/09/17 11:48:46;;;;;;;3.22;2.70;;;;;;;;;;8204657;28;20361;-77
2021/09/17 11:52:53;;;;;;;4.07;3.38;;;;;;;;;;8205542;28;20506;-77
2021/09/17 11:57:14;;;;;;;3.03;2.73;;;;;;;;;;8209009;28;20491;-77
2021/09/17 12:01:25;;;;;;;4.50;2.30;;;;;;;;;;8209698;28;20418;-76
2021/09/17 12:05:32;;;;;;;8.75;3.20;;;;;;;;;;8216608;28;20200;-77
2021/09/17 12:09:38;;;;;;;5.50;2.85;;;;;;;;;;8214531;28;20046;-76
2021/09/17 12:13:46;;;;;;;3.33;2.65;;;;;;;;;;8215893;28;20050;-76
2021/09/17 12:17:53;;;;;;;3.95;3.10;;;;;;;;;;8219500;28;20080;-77
2021/09/17 12:22:02;;;;;;;7.50;3.40;;;;;;;;;;8221479;28;20054;-76
2021/09/17 12:26:12;;;;;;;5.07;3.00;;;;;;;;;;8219846;28;20296;-77
2021/09/17 12:30:20;;;;;;;4.70;3.25;;;;;;;;;;8225782;28;20656;-76
2021/09/17 12:34:25;;;;;;;5.93;3.20;;;;;;;;;;8229025;28;20488;-77
2021/09/17 12:38:30;;;;;;;6.80;3.30;;;;;;;;;;8224038;28;20362;-76
2021/09/17 12:42:35;;;;;;;8.35;3.40;;;;;;;;;;8215666;28;20389;-76
2021/09/17 12:46:47;;;;;;;5.35;2.13;;;;;;;;;;8219773;28;20345;-76
2021/09/17 12:50:53;;;;;;;4.25;2.72;;;;;;;;;;8214767;28;20326;-77
2021/09/17 12:54:58;;;;;;;4.32;2.05;;;;;;;;;;8210197;28;20503;-76
2021/09/17 12:59:13;;;;;;;4.35;2.40;;;;;;;;;;8189289;28;20404;-76
2021/09/17 13:03:21;;;;;;;3.83;2.25;;;;;;;;;;8220027;28;20412;-76
2021/09/17 13:07:27;;;;;;;8.27;2.30;;;;;;;;;;8204704;28;20457;-77
2021/09/17 13:11:32;;;;;;;5.47;2.42;;;;;;;;;;8205467;28;20529;-76
2021/09/17 13:15:39;;;;;;;6.97;2.88;;;;;;;;;;8209746;28;20326;-76
2021/09/17 13:19:44;;;;;;;4.10;2.60;;;;;;;;;;8205827;28;20408;-75
2021/09/17 13:23:49;;;;;;;4.85;3.28;;;;;;;;;;8197091;28;20503;-76
2021/09/17 13:27:57;;;;;;;4.47;2.88;;;;;;;;;;8195869;28;20453;-76
2021/09/17 13:32:02;;;;;;;5.10;2.45;;;;;;;;;;8211992;28;20077;-77
2021/09/17 13:36:07;;;;;;;5.53;2.50;;;;;;;;;;8197064;28;20377;-76
2021/09/17 13:40:17;;;;;;;4.35;2.30;;;;;;;;;;8200491;28;20373;-77
2021/09/17 13:44:22;;;;;;;5.70;2.60;;;;;;;;;;8201331;28;20377;-76
2021/09/17 13:48:29;;;;;;;3.88;2.10;;;;;;;;;;8200786;28;20045;-75
2021/09/17 13:52:35;;;;;;;2.95;2.35;;;;;;;;;;8200685;28;20072;-75
2021/09/17 13:56:41;;;;;;;4.43;2.67;;;;;;;;;;8197214;28;20461;-76
2021/09/17 14:00:46;;;;;;;3.60;2.13;;;;;;;;;;8203125;28;20057;-76
2021/09/17 14:04:51;;;;;;;3.95;3.05;;;;;;;;;;8202793;28;20475;-76
2021/09/17 14:08:57;;;;;;;5.05;2.35;;;;;;;;;;8198885;28;20417;-75
2021/09/17 14:43:56;;;;;;;3.15;1.95;;;;;;;;;;8278803;27;1688912;-73
2021/09/17 14:48:00;;;;;;;4.57;1.92;;;;;;;;;;8305258;28;20040;-76
2021/09/17 14:52:06;;;;;;;6.18;3.58;;;;;;;;;;8305506;28;20491;-74
2021/09/17 14:56:11;;;;;;;2.47;1.50;;;;;;;;;;8302876;28;20066;-75
2021/09/17 15:00:16;;;;;;;2.90;1.52;;;;;;;;;;8299548;28;20352;-76
2021/09/17 15:04:22;;;;;;;5.75;1.70;;;;;;;;;;8300152;28;20072;-75
2021/09/17 15:08:28;;;;;;;9.25;1.55;;;;;;;;;;8300191;28;20517;-76
2021/09/17 15:12:33;;;;;;;5.10;1.77;;;;;;;;;;8301499;28;20487;-74
2021/09/17 15:16:38;;;;;;;10.73;2.17;;;;;;;;;;8301216;28;20044;-73
2021/09/17 15:20:43;;;;;;;4.82;2.15;;;;;;;;;;8299772;28;20048;-74
2021/09/17 15:24:48;;;;;;;2.45;1.85;;;;;;;;;;8301037;28;20459;-75
2021/09/17 15:28:54;;;;;;;6.50;2.13;;;;;;;;;;8302094;28;20533;-75
2021/09/17 15:32:59;;;;;;;7.35;2.63;;;;;;;;;;8300859;28;20455;-75
2021/09/17 15:37:06;;;;;;;4.32;1.55;;;;;;;;;;8284872;28;20037;-74
2021/09/17 15:42:20;;;;;;;3.85;2.22;;;;;;;;;;8306711;28;20378;-75
2021/09/17 15:46:26;;;;;;;5.97;1.80;;;;;;;;;;8266317;28;20044;-75
2021/09/17 15:50:33;;;;;;;2.88;1.65;;;;;;;;;;8293454;28;20368;-75
2021/09/17 15:54:39;;;;;;;2.70;1.80;;;;;;;;;;8295570;28;20044;-74
2021/09/17 15:58:44;;;;;;;2.75;1.38;;;;;;;;;;8275641;28;20368;-76
2021/09/17 16:02:50;;;;;;;4.00;2.53;;;;;;;;;;8276660;28;20056;-73
2021/09/17 16:06:55;;;;;;;4.43;2.55;;;;;;;;;;8294163;28;20414;-74
2021/09/17 16:11:01;;;;;;;3.42;2.20;;;;;;;;;;8292743;28;20487;-75
2021/09/17 16:15:07;;;;;;;5.57;2.05;;;;;;;;;;8277141;28;20044;-75
2021/09/17 16:19:12;;;;;;;2.20;1.90;;;;;;;;;;8274273;28;20352;-74
2021/09/17 16:23:16;;;;;;;2.90;1.80;;;;;;;;;;8272113;28;20402;-75
2021/09/17 16:27:23;;;;;;;5.40;2.00;;;;;;;;;;8257440;28;20368;-73
2021/09/17 16:31:30;;;;;;;14.15;7.85;;;;;;;;;;8292178;28;20455;-75
2021/09/17 16:35:36;;;;;;;9.57;4.13;;;;;;;;;;8292337;28;20048;-75
2021/09/17 16:39:39;;;;;;;5.80;3.28;;;;;;;;;;8292859;28;20479;-76
2021/09/17 16:43:43;;;;;;;10.30;6.05;;;;;;;;;;8274085;28;20468;-75
2021/09/17 16:47:50;;;;;;;4.97;3.50;;;;;;;;;;8291172;28;20364;-74
2021/09/17 16:51:57;;;;;;;8.77;3.35;;;;;;;;;;8293396;28;20341;-74
2021/09/17 16:56:01;;;;;;;8.05;2.63;;;;;;;;;;8290872;28;20488;-74
2021/09/17 17:00:08;;;;;;;4.00;2.67;;;;;;;;;;8274122;28;20470;-74
2021/09/17 17:04:16;;;;;;;4.70;2.85;;;;;;;;;;8292523;28;20371;-74
2021/09/17 17:08:22;;;;;;;4.10;2.75;;;;;;;;;;8294090;28;20063;-75
2021/09/17 17:12:28;;;;;;;3.72;2.42;;;;;;;;;;8292455;28;20345;-76
2021/09/17 17:16:37;;;;;;;4.20;2.55;;;;;;;;;;8276389;28;20370;-75
2021/09/17 17:20:43;;;;;;;12.90;5.15;;;;;;;;;;8292893;28;20040;-78
2021/09/17 17:24:47;;;;;;;4.43;2.90;;;;;;;;;;8273202;28;20494;-76
2021/09/17 17:28:53;;;;;;;7.07;3.00;;;;;;;;;;8291326;28;20468;-77
2021/09/17 17:32:58;;;;;;;6.85;4.40;;;;;;;;;;8291422;28;20447;-77
2021/09/17 17:37:08;;;;;;;10.13;3.80;;;;;;;;;;8288857;28;20700;-77
2021/09/17 17:41:14;;;;;;;10.27;3.88;;;;;;;;;;8291759;28;20403;-77
2021/09/17 17:45:21;;;;;;;13.30;5.27;;;;;;;;;;8256843;28;20519;-76
2021/09/17 17:49:27;;;;;;;5.45;3.10;;;;;;;;;;8272961;28;20383;-77
2021/09/17 17:53:30;;;;;;;5.60;3.15;;;;;;;;;;8275023;28;20067;-76
2021/09/17 17:57:37;;;;;;;11.98;4.45;;;;;;;;;;8291078;28;20362;-77
2021/09/17 18:01:45;;;;;;;11.93;5.90;;;;;;;;;;8273606;28;20386;-76
2021/09/17 18:05:53;;;;;;;13.77;6.07;;;;;;;;;;8272300;28;20333;-77
2021/09/17 18:09:59;;;;;;;15.43;6.60;;;;;;;;;;8272275;28;20373;-78
2021/09/17 18:14:05;;;;;;;11.18;4.43;;;;;;;;;;8290023;28;20452;-77
2021/09/17 18:18:10;;;;;;;6.00;3.17;;;;;;;;;;8292804;28;20044;-77
2021/09/17 18:22:17;;;;;;;4.28;2.63;;;;;;;;;;8291098;28;20498;-76
2021/09/17 18:26:22;;;;;;;4.15;2.75;;;;;;;;;;8291835;28;20066;-77
2021/09/17 18:30:26;;;;;;;5.70;3.22;;;;;;;;;;8288129;28;20394;-77
2021/09/17 18:34:33;;;;;;;7.80;4.50;;;;;;;;;;8289791;28;20452;-76
2021/09/17 18:38:39;;;;;;;11.85;6.05;;;;;;;;;;8272864;28;20471;-76
2021/09/17 18:42:44;;;;;;;7.38;4.03;;;;;;;;;;8287915;28;20506;-76
2021/09/17 18:46:49;;;;;;;3.63;2.22;;;;;;;;;;8289113;28;20467;-76
2021/09/17 18:50:54;;;;;;;6.53;2.83;;;;;;;;;;8289182;28;20455;-76
2021/09/17 18:55:00;;;;;;;6.40;3.08;;;;;;;;;;8272200;28;20357;-77
2021/09/17 18:59:09;;;;;;;4.22;3.05;;;;;;;;;;8290326;28;20056;-76
2021/09/17 19:03:15;;;;;;;4.50;3.28;;;;;;;;;;8271365;28;20349;-77
2021/09/17 19:07:21;;;;;;;4.43;3.22;;;;;;;;;;8290641;28;20362;-76
2021/09/17 19:11:27;;;;;;;4.05;2.80;;;;;;;;;;8255846;28;20330;-76
2021/09/17 19:15:35;;;;;;;4.00;2.90;;;;;;;;;;8289011;28;20045;-76
2021/09/17 19:19:42;;;;;;;4.63;3.03;;;;;;;;;;8276587;28;20067;-77
2021/09/17 19:23:49;;;;;;;6.00;3.28;;;;;;;;;;8295967;28;20044;-77
2021/09/17 19:27:57;;;;;;;5.03;2.72;;;;;;;;;;8293605;28;20048;-76
2021/09/17 19:32:01;;;;;;;8.13;3.10;;;;;;;;;;8277774;28;20335;-77
2021/09/17 19:36:08;;;;;;;4.07;2.50;;;;;;;;;;8277656;28;20355;-78
2021/09/17 19:40:15;;;;;;;4.45;2.88;;;;;;;;;;8294521;28;20469;-77
2021/09/17 19:44:19;;;;;;;2.85;2.00;;;;;;;;;;8296989;28;20351;-77
2021/09/17 19:48:29;;;;;;;3.53;2.35;;;;;;;;;;8275814;28;20360;-77
2021/09/17 19:52:35;;;;;;;4.38;2.47;;;;;;;;;;8293092;28;20367;-76
2021/09/17 19:56:42;;;;;;;;;;;;;;;;;;8295127;28;20056;-75
2021/09/17 20:00:50;;;;;;;2.88;1.70;;;;;;;;;;8294309;28;19947;-77
2021/09/17 20:04:56;;;;;;;;;;;;;;;;;;8275740;28;20049;-76
2021/09/17 20:09:00;;;;;;;4.18;1.98;;;;;;;;;;8293885;28;20367;-75
2021/09/17 20:13:04;;;;;;;4.68;1.83;;;;;;;;;;8295862;28;20440;-77
2021/09/17 20:17:10;;;;;;;2.95;1.60;;;;;;;;;;8294386;28;20044;-77
2021/09/17 20:21:18;;;;;;;3.05;1.70;;;;;;;;;;8295250;28;20367;-76
2021/09/17 20:25:22;;;;;;;3.50;1.83;;;;;;;;;;8277392;28;20048;-76
2021/09/17 20:29:27;;;;;;;5.63;1.88;;;;;;;;;;8292134;28;20355;-76
2021/09/17 20:33:34;;;;;;;1.85;1.58;;;;;;;;;;8291559;28;20059;-77
2021/09/17 20:37:40;;;;;;;3.03;1.80;;;;;;;;;;8297041;28;20061;-75
2021/09/17 20:41:45;;;;;;;1.88;1.50;;;;;;;;;;8275352;28;20119;-75
2021/09/17 20:45:49;;;;;;;5.70;3.03;;;;;;;;;;8274535;28;20378;-76
2021/09/17 20:49:55;;;;;;;6.45;3.25;;;;;;;;;;8294326;28;20475;-75
2021/09/17 20:54:01;;;;;;;5.43;2.88;;;;;;;;;;8273811;28;20490;-77
2021/09/17 20:58:06;;;;;;;5.88;2.38;;;;;;;;;;8292803;28;20463;-76
2021/09/17 21:02:11;;;;;;;6.70;2.90;;;;;;;;;;8273250;28;20376;-76
2021/09/17 21:06:17;;;;;;;6.40;2.67;;;;;;;;;;8296206;28;20371;-78
2021/09/17 21:10:22;;;;;;;6.80;2.67;;;;;;;;;;8274445;28;20452;-76
2021/09/17 21:14:28;;;;;;;7.70;3.17;;;;;;;;;;8287866;28;20070;-75
2021/09/17 21:18:33;;;;;;;7.90;3.28;;;;;;;;;;8269706;28;20045;-75
2021/09/17 21:22:38;;;;;;;7.75;2.70;;;;;;;;;;8292056;28;20379;-77
2021/09/17 21:26:42;;;;;;;4.80;2.65;;;;;;;;;;8259336;28;20359;-76
2021/09/17 21:30:46;;;;;;;4.32;2.42;;;;;;;;;;8292396;28;20478;-77
2021/09/17 21:34:52;;;;;;;8.15;2.60;;;;;;;;;;8284741;28;20392;-76
2021/09/17 21:38:56;;;;;;;7.50;2.70;;;;;;;;;;8237782;28;20349;-77
2021/09/17 21:43:02;;;;;;;6.88;2.80;;;;;;;;;;8263475;28;20472;-76
2021/09/17 21:47:09;;;;;;;5.05;2.53;;;;;;;;;;8264418;28;20476;-75
2021/09/17 21:51:14;;;;;;;4.15;2.35;;;;;;;;;;8255152;28;20037;-76
2021/09/17 21:55:19;;;;;;;3.28;2.42;;;;;;;;;;8272433;28;20049;-75
2021/09/17 21:59:23;;;;;;;4.07;2.30;;;;;;;;;;8273269;28;20045;-75
2021/09/17 22:03:27;;;;;;;6.32;2.20;;;;;;;;;;8272048;28;20045;-77
2021/09/17 22:07:33;;;;;;;7.18;2.60;;;;;;;;;;8254763;28;20162;-77
2021/09/17 22:11:38;;;;;;;4.53;2.55;;;;;;;;;;8273574;28;20502;-75
2021/09/17 22:15:43;;;;;;;4.13;2.25;;;;;;;;;;8274975;28;20057;-76
2021/09/17 22:19:51;;;;;;;8.80;2.53;;;;;;;;;;8272386;28;20380;-77
2021/09/17 22:23:55;;;;;;;3.65;2.42;;;;;;;;;;8272049;28;20057;-77
2021/09/17 22:28:00;;;;;;;4.10;2.20;;;;;;;;;;8256841;28;20321;-75
2021/09/17 22:32:06;;;;;;;5.15;2.03;;;;;;;;;;8272498;28;20519;-76
2021/09/17 22:36:13;;;;;;;5.88;2.33;;;;;;;;;;8272980;28;20049;-77
2021/09/17 22:40:18;;;;;;;4.22;2.58;;;;;;;;;;8273543;28;20037;-75
2021/09/17 22:44:22;;;;;;;5.75;2.40;;;;;;;;;;8256524;28;20414;-74
2021/09/17 22:48:28;;;;;;;4.55;2.50;;;;;;;;;;8274617;28;20340;-75
2021/09/17 22:52:35;;;;;;;7.07;2.83;;;;;;;;;;8275209;28;20071;-76
2021/09/17 22:56:41;;;;;;;3.90;2.45;;;;;;;;;;8285411;28;20094;-76
2021/09/17 23:00:46;;;;;;;6.25;3.00;;;;;;;;;;8278661;28;20059;-77
2021/09/17 23:04:52;;;;;;;6.53;2.42;;;;;;;;;;8262316;28;20321;-77
2021/09/17 23:08:56;;;;;;;4.53;2.65;;;;;;;;;;8279493;28;20356;-77
2021/09/17 23:13:01;;;;;;;4.93;2.97;;;;;;;;;;8278427;28;20360;-76
2021/09/17 23:17:07;;;;;;;6.72;3.33;;;;;;;;;;8277449;28;20526;-76
2021/09/17 23:21:11;;;;;;;9.10;2.92;;;;;;;;;;8277534;28;20494;-75
2021/09/17 23:25:15;;;;;;;4.25;2.78;;;;;;;;;;8276865;28;20364;-74
2021/09/17 23:29:20;;;;;;;5.30;3.13;;;;;;;;;;8275935;28;20455;-75
2021/09/17 23:33:24;;;;;;;5.10;2.78;;;;;;;;;;8258046;28;20450;-74
2021/09/17 23:37:28;;;;;;;3.50;2.60;;;;;;;;;;8258264;28;20037;-74
2021/09/17 23:41:32;;;;;;;5.07;2.63;;;;;;;;;;8275628;28;20471;-75
2021/09/17 23:45:37;;;;;;;9.10;2.60;;;;;;;;;;8276364;28;20493;-77
2021/09/17 23:49:43;;;;;;;5.07;2.08;;;;;;;;;;8275077;28;20436;-76
2021/09/17 23:53:48;;;;;;;6.03;2.45;;;;;;;;;;8258259;28;20049;-76
2021/09/17 23:57:55;;;;;;;6.57;2.42;;;;;;;;;;8276762;28;20385;-75
